createdAt,value
2023-01-25T00:00:53.507Z,4.67
2023-01-25T00:03:21.382Z,5.13
2023-01-25T00:05:49.332Z,5.02
2023-01-25T00:08:17.597Z,4.66
2023-01-25T00:10:45.281Z,4.57
2023-01-25T00:13:12.985Z,4.02
2023-01-25T00:15:42.129Z,4.17
2023-01-25T00:18:09.814Z,4.64
2023-01-25T00:20:37.490Z,4.58
2023-01-25T00:23:05.154Z,4.77
2023-01-25T00:25:32.873Z,4.60
2023-01-25T00:28:00.637Z,4.50
2023-01-25T00:30:28.418Z,4.73
2023-01-25T00:33:07.323Z,4.49
2023-01-25T00:35:35.813Z,4.39
2023-01-25T00:38:22.407Z,4.10
2023-01-25T00:40:50.448Z,4.47
2023-01-25T00:43:18.506Z,4.19
2023-01-25T00:45:46.260Z,4.14
2023-01-25T00:48:15.486Z,4.30
2023-01-25T00:50:43.224Z,4.55
2023-01-25T00:53:10.989Z,4.35
2023-01-25T00:55:38.753Z,4.42
2023-01-25T00:58:06.635Z,3.59
2023-01-25T01:00:34.318Z,3.58
2023-01-25T01:03:02.057Z,3.97
2023-01-25T01:05:31.101Z,4.37
2023-01-25T01:07:58.790Z,4.17
2023-01-25T01:10:26.493Z,4.42
2023-01-25T01:12:54.329Z,4.34
2023-01-25T01:15:22.523Z,5.07
2023-01-25T01:17:50.293Z,4.74
2023-01-25T01:20:18.095Z,4.45
2023-01-25T01:22:47.256Z,4.68
2023-01-25T01:25:15.335Z,4.34
2023-01-25T01:27:43.560Z,3.97
2023-01-25T01:30:12.494Z,3.89
2023-01-25T01:32:40.443Z,3.83
2023-01-25T01:35:09.197Z,3.76
2023-01-25T01:37:37.996Z,3.68
2023-01-25T01:40:08.425Z,3.87
2023-01-25T01:42:57.672Z,4.02
2023-01-25T01:45:52.691Z,3.67
2023-01-25T01:48:37.670Z,3.35
2023-01-25T01:51:17.546Z,3.99
2023-01-25T01:53:51.334Z,3.81
2023-01-25T01:56:27.398Z,4.00
2023-01-25T01:58:58.560Z,4.00
2023-01-25T02:01:26.861Z,3.84
2023-01-25T02:03:55.691Z,3.74
2023-01-25T02:06:33.841Z,4.10
2023-01-25T02:09:02.955Z,4.13
2023-01-25T02:11:33.720Z,4.00
2023-01-25T02:14:03.046Z,3.30
2023-01-25T02:16:30.838Z,3.77
2023-01-25T02:19:02.161Z,4.00
2023-01-25T02:21:38.898Z,4.07
2023-01-25T02:24:13.107Z,3.73
2023-01-25T02:26:42.432Z,3.59
2023-01-25T02:29:10.680Z,3.64
2023-01-25T02:31:38.504Z,3.65
2023-01-25T02:34:06.730Z,3.50
2023-01-25T02:36:36.077Z,3.32
2023-01-25T02:39:08.352Z,3.44
2023-01-25T02:41:40.101Z,3.40
2023-01-25T02:44:12.468Z,3.16
2023-01-25T02:46:45.036Z,3.43
2023-01-25T02:49:13.697Z,3.70
2023-01-25T02:51:43.938Z,3.73
2023-01-25T02:54:15.081Z,3.46
2023-01-25T02:56:43.060Z,3.55
2023-01-25T02:59:13.575Z,3.82
2023-01-25T03:01:46.480Z,3.51
2023-01-25T03:04:15.054Z,3.76
2023-01-25T03:06:43.311Z,3.86
2023-01-25T03:09:12.718Z,3.98
2023-01-25T03:11:44.906Z,3.38
2023-01-25T03:14:14.100Z,3.67
2023-01-25T03:16:41.839Z,3.71
2023-01-25T03:19:09.835Z,4.03
2023-01-25T03:21:42.530Z,4.39
2023-01-25T03:24:11.362Z,3.87
2023-01-25T03:27:02.536Z,4.00
2023-01-25T03:29:46.125Z,4.19
2023-01-25T03:32:18.526Z,4.50
2023-01-25T03:34:46.405Z,4.29
2023-01-25T03:37:14.922Z,4.00
2023-01-25T03:39:44.027Z,4.41
2023-01-25T03:42:11.756Z,4.52
2023-01-25T03:44:39.743Z,4.36
2023-01-25T03:47:08.983Z,4.26
2023-01-25T03:49:36.839Z,4.16
2023-01-25T03:52:06.748Z,4.20
2023-01-25T03:54:38.265Z,4.19
2023-01-25T03:57:08.844Z,4.50
2023-01-25T03:59:46.150Z,4.15
2023-01-25T04:02:15.628Z,4.30
2023-01-25T04:04:43.735Z,4.98
2023-01-25T04:07:11.711Z,4.63
2023-01-25T04:09:41.404Z,4.82
2023-01-25T04:12:10.620Z,4.65
2023-01-25T04:14:44.672Z,4.71
2023-01-25T04:17:18.270Z,4.53
2023-01-25T04:20:00.015Z,4.81
2023-01-25T04:22:35.029Z,5.08
2023-01-25T04:25:04.349Z,4.85
2023-01-25T04:27:33.403Z,5.05
2023-01-25T04:30:08.238Z,4.82
2023-01-25T04:32:39.150Z,4.17
2023-01-25T04:35:17.830Z,4.38
2023-01-25T04:37:53.354Z,4.27
2023-01-25T04:40:21.397Z,4.56
2023-01-25T04:42:49.137Z,4.54
2023-01-25T04:45:17.536Z,4.41
2023-01-25T04:47:46.901Z,4.81
2023-01-25T04:50:14.918Z,4.90
2023-01-25T04:52:42.966Z,4.21
2023-01-25T04:55:11.410Z,4.32
2023-01-25T04:57:43.680Z,3.96
2023-01-25T05:00:12.908Z,4.01
2023-01-25T05:02:41.201Z,4.51
2023-01-25T05:05:11.813Z,4.12
2023-01-25T05:07:39.862Z,3.94
2023-01-25T05:10:09.159Z,3.96
2023-01-25T05:12:41.502Z,3.98
2023-01-25T05:15:10.217Z,3.84
2023-01-25T05:17:38.211Z,3.81
2023-01-25T05:20:07.275Z,4.21
2023-01-25T05:22:36.704Z,4.16
2023-01-25T05:25:06.255Z,3.80
2023-01-25T05:27:35.420Z,3.79
2023-01-25T05:30:32.169Z,4.07
2023-01-25T05:33:10.689Z,4.07
2023-01-25T05:35:38.405Z,3.78
2023-01-25T05:38:07.597Z,3.77
2023-01-25T05:40:37.022Z,3.41
2023-01-25T05:43:04.768Z,3.63
2023-01-25T05:45:32.574Z,4.01
2023-01-25T05:48:00.826Z,4.47
2023-01-25T05:50:28.874Z,4.02
2023-01-25T05:53:08.147Z,3.93
2023-01-25T05:55:36.732Z,4.21
2023-01-25T05:58:09.004Z,4.39
2023-01-25T06:00:36.804Z,4.03
2023-01-25T06:03:05.015Z,4.03
2023-01-25T06:05:36.048Z,4.24
2023-01-25T06:08:03.785Z,4.07
2023-01-25T06:10:43.533Z,3.98
2023-01-25T06:13:11.397Z,3.76
2023-01-25T06:15:39.141Z,3.98
2023-01-25T06:18:28.697Z,3.71
2023-01-25T06:21:12.939Z,4.02
2023-01-25T06:23:40.820Z,4.13
2023-01-25T06:26:14.447Z,3.91
2023-01-25T06:28:42.577Z,4.14
2023-01-25T06:31:12.748Z,3.75
2023-01-25T06:33:41.153Z,3.84
2023-01-25T06:36:12.505Z,4.13
2023-01-25T06:38:40.735Z,3.82
2023-01-25T06:41:12.791Z,3.37
2023-01-25T06:43:40.995Z,3.73
2023-01-25T06:46:11.974Z,3.81
2023-01-25T06:48:40.116Z,4.42
2023-01-25T06:51:09.845Z,3.87
2023-01-25T06:53:40.495Z,3.71
2023-01-25T06:56:12.029Z,3.89
2023-01-25T06:58:40.268Z,3.99
2023-01-25T07:01:09.675Z,3.66
2023-01-25T07:03:37.427Z,3.93
2023-01-25T07:06:06.777Z,3.76
2023-01-25T07:08:34.987Z,3.13
2023-01-25T07:11:05.203Z,3.94
2023-01-25T07:13:35.293Z,3.82
2023-01-25T07:16:05.168Z,4.11
2023-01-25T07:18:34.122Z,4.33
2023-01-25T07:21:06.292Z,4.18
2023-01-25T07:23:34.817Z,4.14
2023-01-25T07:26:02.999Z,4.09
2023-01-25T07:28:33.166Z,4.15
2023-01-25T07:31:07.523Z,4.08
2023-01-25T07:33:35.747Z,4.28
2023-01-25T07:36:03.832Z,3.61
2023-01-25T07:38:32.150Z,3.89
2023-01-25T07:40:59.935Z,4.04
2023-01-25T07:43:28.101Z,4.16
2023-01-25T07:46:01.585Z,4.42
2023-01-25T07:48:31.981Z,4.48
2023-01-25T07:51:12.504Z,4.81
2023-01-25T07:53:40.816Z,4.96
2023-01-25T07:56:09.639Z,4.43
2023-01-25T07:58:37.675Z,4.38
2023-01-25T08:01:08.952Z,4.53
2023-01-25T08:03:39.309Z,4.25
2023-01-25T08:06:08.116Z,4.23
2023-01-25T08:08:37.728Z,4.48
2023-01-25T08:11:10.419Z,4.47
2023-01-25T08:13:38.197Z,4.43
2023-01-25T08:16:06.333Z,4.26
2023-01-25T08:18:35.895Z,4.30
2023-01-25T08:21:06.414Z,3.65
2023-01-25T08:23:34.092Z,4.48
2023-01-25T08:26:03.181Z,4.24
2023-01-25T08:28:30.980Z,4.31
2023-01-25T08:31:06.509Z,4.04
2023-01-25T08:33:34.529Z,4.43
2023-01-25T08:36:02.634Z,4.91
2023-01-25T08:38:31.965Z,4.23
2023-01-25T08:41:06.422Z,4.27
2023-01-25T08:43:34.301Z,4.13
2023-01-25T08:46:02.295Z,4.02
2023-01-25T08:48:30.115Z,4.36
2023-01-25T08:51:01.023Z,4.28
2023-01-25T08:53:28.903Z,4.29
2023-01-25T08:56:03.180Z,3.90
2023-01-25T08:58:31.790Z,4.13
2023-01-25T09:01:03.445Z,4.65
2023-01-25T09:03:32.139Z,4.75
2023-01-25T09:06:00.248Z,5.04
2023-01-25T09:08:27.979Z,4.27
2023-01-25T09:10:55.758Z,4.33
2023-01-25T09:13:24.877Z,4.43
2023-01-25T09:15:52.727Z,4.81
2023-01-25T09:18:20.433Z,4.44
2023-01-25T09:20:48.168Z,4.39
2023-01-25T09:23:15.925Z,4.29
2023-01-25T09:25:46.519Z,4.35
2023-01-25T09:28:14.602Z,3.90
2023-01-25T09:30:47.609Z,4.20
2023-01-25T09:33:28.226Z,3.87
2023-01-25T09:35:56.116Z,4.34
2023-01-25T09:38:27.010Z,4.06
2023-01-25T09:41:06.048Z,4.55
2023-01-25T09:43:47.658Z,4.21
2023-01-25T09:46:26.185Z,4.09
2023-01-25T09:49:07.567Z,4.02
2023-01-25T09:51:50.702Z,4.34
2023-01-25T09:54:20.769Z,4.17
2023-01-25T09:56:51.733Z,4.39
2023-01-25T09:59:26.237Z,3.82
2023-01-25T10:01:57.334Z,4.33
2023-01-25T10:04:29.510Z,4.10
2023-01-25T10:07:01.796Z,4.36
2023-01-25T10:09:40.819Z,3.83
2023-01-25T10:12:16.667Z,4.42
2023-01-25T10:14:44.581Z,4.76
2023-01-25T10:17:19.149Z,4.32
2023-01-25T10:20:02.689Z,4.31
2023-01-25T10:22:36.024Z,4.55
2023-01-25T10:25:23.329Z,4.48
2023-01-25T10:28:07.009Z,4.56
2023-01-25T10:30:42.952Z,4.41
2023-01-25T10:33:18.889Z,4.64
2023-01-25T10:35:48.417Z,4.62
2023-01-25T10:38:22.586Z,4.40
2023-01-25T10:40:55.583Z,4.83
2023-01-25T10:43:23.979Z,4.56
2023-01-25T10:45:52.462Z,4.56
2023-01-25T10:48:25.186Z,4.49
2023-01-25T10:50:54.661Z,4.27
2023-01-25T10:53:32.280Z,4.57
2023-01-25T10:56:24.462Z,4.84
2023-01-25T10:58:55.339Z,4.75
2023-01-25T11:01:29.456Z,4.82
2023-01-25T11:04:01.528Z,4.93
2023-01-25T11:06:37.889Z,4.25
2023-01-25T11:09:35.678Z,4.61
2023-01-25T11:12:05.708Z,4.67
2023-01-25T11:14:34.752Z,4.94
2023-01-25T11:17:05.120Z,4.60
2023-01-25T11:19:36.786Z,4.03
2023-01-25T11:22:07.221Z,4.25
2023-01-25T11:24:36.642Z,4.31
2023-01-25T11:27:17.902Z,4.78
2023-01-25T11:29:47.081Z,4.31
2023-01-25T11:32:22.458Z,4.13
2023-01-25T11:34:52.161Z,4.31
2023-01-25T11:37:47.297Z,3.94
2023-01-25T11:40:19.261Z,3.99
2023-01-25T11:43:03.964Z,4.26
2023-01-25T11:45:56.978Z,4.88
2023-01-25T11:49:00.286Z,4.44
2023-01-25T11:51:34.717Z,4.54
2023-01-25T11:54:10.559Z,4.77
2023-01-25T11:56:51.742Z,4.84
2023-01-25T11:59:38.253Z,4.21
2023-01-25T12:02:20.519Z,4.54
2023-01-25T12:05:21.496Z,5.03
2023-01-25T12:08:04.019Z,4.85
2023-01-25T12:10:48.015Z,5.04
2023-01-25T12:13:23.962Z,4.45
2023-01-25T12:16:08.273Z,4.54
2023-01-25T12:19:03.630Z,4.95
2023-01-25T12:21:47.137Z,4.75
2023-01-25T12:24:33.356Z,4.21
2023-01-25T12:27:11.192Z,4.50
2023-01-25T12:29:43.855Z,4.84
2023-01-25T12:32:18.224Z,4.79
2023-01-25T12:34:51.543Z,4.66
2023-01-25T12:37:25.261Z,5.15
2023-01-25T12:39:59.948Z,4.96
2023-01-25T12:42:33.767Z,4.49
2023-01-25T12:45:06.895Z,4.64
2023-01-25T12:47:44.740Z,4.70
2023-01-25T12:50:18.067Z,4.64
2023-01-25T12:52:50.187Z,4.80
2023-01-25T12:55:19.951Z,4.52
2023-01-25T12:57:54.845Z,4.72
2023-01-25T13:00:31.833Z,4.72
2023-01-25T13:03:22.703Z,4.87
2023-01-25T13:05:57.142Z,5.25
2023-01-25T13:08:32.488Z,4.93
2023-01-25T13:11:11.634Z,5.32
2023-01-25T13:13:39.455Z,4.91
2023-01-25T13:16:35.028Z,5.32
2023-01-25T13:19:03.347Z,5.56
2023-01-25T13:21:45.062Z,5.93
2023-01-25T13:24:22.221Z,4.99
2023-01-25T13:27:03.895Z,4.13
2023-01-25T13:30:00.288Z,4.45
2023-01-25T13:33:06.226Z,4.76
2023-01-25T13:35:39.969Z,5.18
2023-01-25T13:38:27.259Z,4.80
2023-01-25T13:41:14.491Z,4.76
2023-01-25T13:43:47.275Z,4.98
2023-01-25T13:46:23.093Z,4.54
2023-01-25T13:48:58.983Z,4.00
2023-01-25T13:51:30.468Z,4.18
2023-01-25T13:54:00.040Z,4.49
2023-01-25T13:56:30.776Z,4.66
2023-01-25T13:59:00.403Z,4.56
2023-01-25T14:01:30.287Z,4.49
2023-01-25T14:04:01.977Z,4.08
2023-01-25T14:06:32.566Z,3.77
2023-01-25T14:09:07.463Z,3.51
2023-01-25T14:11:39.961Z,3.95
2023-01-25T14:14:21.920Z,4.09
2023-01-25T14:17:03.706Z,4.04
2023-01-25T14:19:33.367Z,4.09
2023-01-25T14:22:29.005Z,4.67
2023-01-25T14:25:11.914Z,4.93
2023-01-25T14:27:44.190Z,5.47
2023-01-25T14:30:20.879Z,4.40
2023-01-25T14:32:50.567Z,4.49
2023-01-25T14:35:49.420Z,4.01
2023-01-25T14:38:30.581Z,4.62
2023-01-25T14:41:02.406Z,5.13
2023-01-25T14:43:31.716Z,4.85
2023-01-25T14:46:00.861Z,5.28
2023-01-25T14:48:38.953Z,5.51
2023-01-25T14:51:13.983Z,5.05
2023-01-25T14:53:45.009Z,4.84
2023-01-25T14:56:20.895Z,4.92
2023-01-25T14:58:59.064Z,4.84
2023-01-25T15:01:34.007Z,3.75
2023-01-25T15:04:02.065Z,4.36
2023-01-25T15:06:32.476Z,4.34
2023-01-25T15:09:00.170Z,4.21
2023-01-25T15:11:38.632Z,4.48
2023-01-25T15:14:18.117Z,4.55
2023-01-25T15:16:47.528Z,4.72
2023-01-25T15:19:28.076Z,4.70
2023-01-25T15:21:57.820Z,3.98
2023-01-25T15:24:26.248Z,4.57
2023-01-25T15:26:56.005Z,4.66
2023-01-25T15:29:27.105Z,4.68
2023-01-25T15:31:57.278Z,4.72
2023-01-25T15:34:29.515Z,4.69
2023-01-25T15:36:57.552Z,4.25
2023-01-25T15:39:25.380Z,3.53
2023-01-25T15:41:53.197Z,4.60
2023-01-25T15:44:21.106Z,5.03
2023-01-25T15:46:52.398Z,4.37
2023-01-25T15:49:27.024Z,4.34
2023-01-25T15:51:55.005Z,4.45
2023-01-25T15:54:24.143Z,4.78
2023-01-25T15:56:56.102Z,4.28
2023-01-25T15:59:24.052Z,4.19
2023-01-25T16:01:53.951Z,4.54
2023-01-25T16:04:25.157Z,4.50
2023-01-25T16:06:54.486Z,4.56
2023-01-25T16:09:24.231Z,4.60
2023-01-25T16:11:53.046Z,5.29
2023-01-25T16:14:23.585Z,5.35
2023-01-25T16:16:53.257Z,5.04
2023-01-25T16:19:24.366Z,4.64
2023-01-25T16:21:52.884Z,5.33
2023-01-25T16:24:20.852Z,5.51
2023-01-25T16:26:51.726Z,5.61
2023-01-25T16:29:19.879Z,5.18
2023-01-25T16:31:48.257Z,5.26
2023-01-25T16:34:16.266Z,4.31
2023-01-25T16:36:50.232Z,4.41
2023-01-25T16:39:20.468Z,3.83
2023-01-25T16:41:48.806Z,4.70
2023-01-25T16:44:17.369Z,4.76
2023-01-25T16:46:45.353Z,4.62
2023-01-25T16:49:17.640Z,4.82
2023-01-25T16:51:48.898Z,4.22
2023-01-25T16:54:16.770Z,4.29
2023-01-25T16:56:44.675Z,4.31
2023-01-25T16:59:12.659Z,4.87
2023-01-25T17:01:41.560Z,3.76
2023-01-25T17:04:10.108Z,4.26
2023-01-25T17:06:40.277Z,4.61
2023-01-25T17:09:22.091Z,4.73
2023-01-25T17:11:51.394Z,4.21
2023-01-25T17:14:20.506Z,4.28
2023-01-25T17:16:51.344Z,4.80
2023-01-25T17:19:20.290Z,4.97
2023-01-25T17:21:48.251Z,5.18
2023-01-25T17:24:21.004Z,5.08
2023-01-25T17:26:48.878Z,4.91
2023-01-25T17:29:18.950Z,4.84
2023-01-25T17:31:47.561Z,4.53
2023-01-25T17:34:19.159Z,4.12
2023-01-25T17:36:47.445Z,4.42
2023-01-25T17:39:19.420Z,3.99
2023-01-25T17:41:49.127Z,4.76
2023-01-25T17:44:21.077Z,4.98
2023-01-25T17:46:49.546Z,4.54
2023-01-25T17:49:18.272Z,4.62
2023-01-25T17:51:46.836Z,4.80
2023-01-25T17:54:14.858Z,4.90
2023-01-25T17:56:44.146Z,5.21
2023-01-25T17:59:11.991Z,4.94
2023-01-25T18:01:42.811Z,4.40
2023-01-25T18:04:13.095Z,5.33
2023-01-25T18:06:40.898Z,5.29
2023-01-25T18:09:08.749Z,4.86
2023-01-25T18:11:38.407Z,4.88
2023-01-25T18:14:09.618Z,5.39
2023-01-25T18:16:39.707Z,5.69
2023-01-25T18:19:08.659Z,5.62
2023-01-25T18:21:36.748Z,5.68
2023-01-25T18:24:07.107Z,5.08
2023-01-25T18:26:37.899Z,5.50
2023-01-25T18:29:35.719Z,5.41
2023-01-25T18:32:03.559Z,5.58
2023-01-25T18:34:31.373Z,5.61
2023-01-25T18:36:59.323Z,5.88
2023-01-25T18:39:27.275Z,4.36
2023-01-25T18:41:55.132Z,4.94
2023-01-25T18:44:22.929Z,4.38
2023-01-25T18:46:52.002Z,4.38
2023-01-25T18:49:19.784Z,3.84
2023-01-25T18:52:08.397Z,4.13
2023-01-25T18:54:36.098Z,4.13
2023-01-25T18:57:03.919Z,3.74
2023-01-25T18:59:31.911Z,3.08
2023-01-25T19:02:01.051Z,3.32
2023-01-25T19:04:29.010Z,3.75
2023-01-25T19:06:57.666Z,3.54
2023-01-25T19:09:27.476Z,3.78
2023-01-25T19:11:55.897Z,2.96
2023-01-25T19:14:24.565Z,2.61
2023-01-25T19:16:52.801Z,2.24
2023-01-25T19:19:22.204Z,2.12
2023-01-25T19:21:50.349Z,2.56
2023-01-25T19:24:19.719Z,2.83
2023-01-25T19:26:48.333Z,3.53
2023-01-25T19:29:16.566Z,3.83
2023-01-25T19:31:44.501Z,4.40
2023-01-25T19:34:12.583Z,3.83
2023-01-25T19:36:45.914Z,4.45
2023-01-25T19:39:14.474Z,4.86
2023-01-25T19:41:43.725Z,4.61
2023-01-25T19:44:15.871Z,4.69
2023-01-25T19:46:44.414Z,4.19
2023-01-25T19:49:14.428Z,3.80
2023-01-25T19:51:48.882Z,3.39
2023-01-25T19:54:17.566Z,4.11
2023-01-25T19:56:47.345Z,3.65
2023-01-25T19:59:17.156Z,4.40
2023-01-25T20:01:46.189Z,4.14
2023-01-25T20:04:15.767Z,4.23
2023-01-25T20:06:45.337Z,4.18
2023-01-25T20:09:17.809Z,4.47
2023-01-25T20:11:46.215Z,4.28
2023-01-25T20:14:14.734Z,3.90
2023-01-25T20:16:42.774Z,3.71
2023-01-25T20:19:13.010Z,4.61
2023-01-25T20:21:41.135Z,4.52
2023-01-25T20:24:10.870Z,4.69
2023-01-25T20:26:42.773Z,3.68
2023-01-25T20:29:12.449Z,3.41
2023-01-25T20:31:41.493Z,4.08
2023-01-25T20:34:12.609Z,4.57
2023-01-25T20:36:41.699Z,4.26
2023-01-25T20:39:14.028Z,4.71
2023-01-25T20:41:42.077Z,4.21
2023-01-25T20:44:11.294Z,4.35
2023-01-25T20:46:40.347Z,4.06
2023-01-25T20:49:11.137Z,4.63
2023-01-25T20:51:39.810Z,4.65
2023-01-25T20:54:07.578Z,4.70
2023-01-25T20:56:37.506Z,4.68
2023-01-25T20:59:06.114Z,4.92
2023-01-25T21:01:37.101Z,3.51
2023-01-25T21:04:06.978Z,3.15
2023-01-25T21:06:35.514Z,3.80
2023-01-25T21:09:04.258Z,3.70
2023-01-25T21:11:32.653Z,4.15
2023-01-25T21:14:01.928Z,3.89
2023-01-25T21:16:30.244Z,4.32
2023-01-25T21:18:59.576Z,4.01
2023-01-25T21:21:29.282Z,4.08
2023-01-25T21:23:59.917Z,3.26
2023-01-25T21:26:31.984Z,3.83
2023-01-25T21:29:03.679Z,4.22
2023-01-25T21:31:36.132Z,4.10
2023-01-25T21:34:05.097Z,3.91
2023-01-25T21:36:33.180Z,3.65
2023-01-25T21:39:05.807Z,4.27
2023-01-25T21:41:37.892Z,4.66
2023-01-25T21:44:27.828Z,4.68
2023-01-25T21:47:27.418Z,4.13
2023-01-25T21:50:01.835Z,4.16
2023-01-25T21:52:29.611Z,3.96
2023-01-25T21:54:57.430Z,3.50
2023-01-25T21:57:25.362Z,2.87
2023-01-25T21:59:54.600Z,3.44
2023-01-25T22:02:22.640Z,3.83
2023-01-25T22:04:50.545Z,3.92
2023-01-25T22:07:18.416Z,3.78
2023-01-25T22:09:46.151Z,3.54
2023-01-25T22:12:13.797Z,3.06
2023-01-25T22:14:41.592Z,3.30
2023-01-25T22:17:10.677Z,3.17
2023-01-25T22:19:38.367Z,3.27
2023-01-25T22:22:06.106Z,3.20
2023-01-25T22:24:33.768Z,3.46
2023-01-25T22:27:33.846Z,3.11
2023-01-25T22:30:01.628Z,3.38
2023-01-25T22:32:31.895Z,4.14
2023-01-25T22:34:59.585Z,3.39
2023-01-25T22:37:30.440Z,3.42
2023-01-25T22:39:58.873Z,4.35
2023-01-25T22:42:26.592Z,4.66
2023-01-25T22:44:54.341Z,4.86
2023-01-25T22:47:25.072Z,4.59
2023-01-25T22:49:54.157Z,4.56
2023-01-25T22:52:23.218Z,3.98
2023-01-25T22:54:51.800Z,3.59
2023-01-25T22:57:22.728Z,3.82
2023-01-25T22:59:50.424Z,3.10
2023-01-25T23:02:18.758Z,3.69
2023-01-25T23:04:46.563Z,3.72
2023-01-25T23:07:20.086Z,3.83
2023-01-25T23:09:51.557Z,2.86
2023-01-25T23:12:27.321Z,2.51
2023-01-25T23:15:02.547Z,2.78
2023-01-25T23:17:44.180Z,2.88
2023-01-25T23:20:13.751Z,2.91
2023-01-25T23:22:42.875Z,2.94
2023-01-25T23:25:12.866Z,2.75
2023-01-25T23:27:40.896Z,2.60
2023-01-25T23:30:10.675Z,3.13
2023-01-25T23:32:42.464Z,3.03
2023-01-25T23:35:10.499Z,2.97
2023-01-25T23:37:45.691Z,2.52
2023-01-25T23:40:15.794Z,2.63
2023-01-25T23:42:43.709Z,2.69
2023-01-25T23:45:12.294Z,2.84
2023-01-25T23:47:40.124Z,2.45
2023-01-25T23:50:08.902Z,3.32
2023-01-25T23:52:36.857Z,2.95
2023-01-25T23:55:04.816Z,3.94
2023-01-25T23:57:33.890Z,3.87
